createdAt,value
2023-03-31T00:01:09.605Z,15.78
2023-03-31T00:03:42.572Z,15.90
2023-03-31T00:06:14.446Z,13.00
2023-03-31T00:08:42.288Z,12.65
2023-03-31T00:11:11.331Z,14.50
2023-03-31T00:13:39.440Z,13.50
2023-03-31T00:16:10.291Z,13.50
2023-03-31T00:18:40.342Z,14.80
2023-03-31T00:21:18.850Z,12.50
2023-03-31T00:23:46.846Z,13.35
2023-03-31T00:26:14.446Z,14.03
2023-03-31T00:28:42.207Z,15.58
2023-03-31T00:31:10.372Z,15.65
2023-03-31T00:33:38.036Z,13.80
2023-03-31T00:36:06.433Z,13.65
2023-03-31T00:38:34.704Z,14.80
2023-03-31T00:41:04.186Z,16.35
2023-03-31T00:43:36.181Z,17.12
2023-03-31T00:46:19.216Z,17.07
2023-03-31T00:48:51.126Z,16.40
2023-03-31T00:51:22.355Z,16.20
2023-03-31T00:53:59.376Z,18.70
2023-03-31T00:56:30.282Z,17.50
2023-03-31T00:59:03.528Z,20.43
2023-03-31T01:01:31.644Z,16.97
2023-03-31T01:03:59.610Z,17.20
2023-03-31T01:06:29.552Z,16.40
2023-03-31T01:08:57.815Z,15.53
2023-03-31T01:11:30.093Z,19.12
2023-03-31T01:13:58.755Z,20.55
2023-03-31T01:16:26.476Z,16.00
2023-03-31T01:18:56.332Z,16.65
2023-03-31T01:21:53.277Z,13.18
2023-03-31T01:24:46.191Z,11.50
2023-03-31T01:27:25.081Z,14.93
2023-03-31T01:30:25.996Z,12.18
2023-03-31T01:33:07.758Z,13.68
2023-03-31T01:36:18.907Z,11.93
2023-03-31T01:39:23.965Z,12.55
2023-03-31T01:42:17.022Z,10.45
2023-03-31T01:44:55.951Z,9.78
2023-03-31T01:47:32.503Z,14.95
2023-03-31T01:50:22.337Z,11.95
2023-03-31T01:53:04.052Z,10.63
2023-03-31T01:55:48.626Z,10.82
2023-03-31T01:58:39.901Z,12.50
2023-03-31T02:01:22.104Z,15.75
2023-03-31T02:03:57.557Z,11.03
2023-03-31T02:09:01.897Z,14.53
2023-03-31T02:11:32.178Z,13.80
2023-03-31T02:14:04.236Z,12.65
2023-03-31T02:16:37.349Z,14.95
2023-03-31T02:19:07.638Z,14.50
2023-03-31T02:21:38.867Z,17.23
2023-03-31T02:24:11.489Z,17.15
2023-03-31T02:26:50.542Z,15.65
2023-03-31T02:29:18.483Z,14.83
2023-03-31T02:32:00.880Z,16.93
2023-03-31T02:34:29.068Z,16.55
2023-03-31T02:36:57.344Z,15.18
2023-03-31T02:39:30.307Z,17.20
2023-03-31T02:41:57.976Z,18.50
2023-03-31T02:44:26.992Z,16.27
2023-03-31T02:46:56.585Z,18.95
2023-03-31T02:49:24.296Z,19.07
2023-03-31T02:52:26.155Z,20.20
2023-03-31T02:55:20.870Z,18.62
2023-03-31T02:58:18.485Z,12.53
2023-03-31T03:01:13.162Z,10.53
2023-03-31T03:03:58.634Z,9.90
2023-03-31T03:06:48.564Z,11.48
2023-03-31T03:09:47.570Z,12.85
2023-03-31T03:12:25.383Z,12.43
2023-03-31T03:15:16.745Z,12.78
2023-03-31T03:17:47.377Z,16.25
2023-03-31T03:20:17.926Z,13.32
2023-03-31T03:22:45.683Z,14.93
2023-03-31T03:25:16.753Z,14.43
2023-03-31T03:27:44.414Z,12.98
2023-03-31T03:30:13.742Z,14.60
2023-03-31T03:32:41.511Z,15.20
2023-03-31T03:35:10.206Z,19.45
2023-03-31T03:37:38.280Z,21.12
2023-03-31T03:40:08.349Z,18.75
2023-03-31T03:42:36.156Z,17.60
2023-03-31T03:45:06.810Z,17.20
2023-03-31T03:47:35.664Z,13.30
2023-03-31T03:50:04.737Z,16.45
2023-03-31T03:52:32.542Z,16.52
2023-03-31T03:55:01.390Z,13.75
2023-03-31T03:57:29.306Z,10.63
2023-03-31T03:59:57.186Z,12.68
2023-03-31T04:02:27.604Z,12.82
2023-03-31T04:04:55.087Z,14.60
2023-03-31T04:07:23.005Z,14.60
2023-03-31T04:09:50.844Z,11.95
2023-03-31T04:12:18.731Z,12.70
2023-03-31T04:14:46.599Z,16.90
2023-03-31T04:17:15.480Z,19.25
2023-03-31T04:19:43.606Z,19.12
2023-03-31T04:22:13.152Z,15.13
2023-03-31T04:24:41.139Z,17.60
2023-03-31T04:27:10.021Z,17.75
2023-03-31T04:29:37.892Z,14.65
2023-03-31T04:32:06.165Z,15.53
2023-03-31T04:34:36.646Z,21.62
2023-03-31T04:37:04.398Z,22.20
2023-03-31T04:39:32.202Z,23.52
2023-03-31T04:42:01.510Z,15.10
2023-03-31T04:44:29.519Z,17.23
2023-03-31T04:46:58.439Z,17.27
2023-03-31T04:49:26.071Z,21.60
2023-03-31T04:51:53.897Z,21.80
2023-03-31T04:54:21.391Z,20.08
2023-03-31T04:56:49.130Z,20.50
2023-03-31T04:59:16.865Z,16.87
2023-03-31T05:01:45.220Z,15.20
2023-03-31T05:04:13.321Z,17.60
2023-03-31T05:06:41.039Z,18.40
2023-03-31T05:09:10.625Z,19.95
2023-03-31T05:11:38.473Z,18.27
2023-03-31T05:14:06.085Z,20.68
2023-03-31T05:16:33.861Z,18.27
2023-03-31T05:19:01.746Z,19.50
2023-03-31T05:21:30.710Z,21.37
2023-03-31T05:23:58.801Z,18.00
2023-03-31T05:26:26.609Z,19.00
2023-03-31T05:28:54.971Z,18.15
2023-03-31T05:31:23.117Z,14.00
2023-03-31T05:33:51.411Z,14.03
2023-03-31T05:36:19.210Z,14.80
2023-03-31T05:38:47.211Z,14.10
2023-03-31T05:41:16.409Z,11.43
2023-03-31T05:43:44.147Z,10.72
2023-03-31T05:46:12.194Z,15.78
2023-03-31T05:48:40.848Z,16.48
2023-03-31T05:51:08.678Z,11.65
2023-03-31T05:53:36.532Z,14.00
2023-03-31T05:56:07.517Z,10.80
2023-03-31T05:58:36.935Z,10.85
2023-03-31T06:01:13.073Z,11.08
2023-03-31T06:03:42.107Z,13.55
2023-03-31T06:06:12.746Z,11.35
2023-03-31T06:08:41.093Z,13.75
2023-03-31T06:11:12.095Z,15.00
2023-03-31T06:13:40.207Z,14.78
2023-03-31T06:16:11.282Z,13.20
2023-03-31T06:18:39.994Z,16.20
2023-03-31T06:21:08.605Z,17.35
2023-03-31T06:23:36.408Z,23.65
2023-03-31T06:26:07.755Z,19.57
2023-03-31T06:28:36.226Z,25.45
2023-03-31T06:31:08.819Z,19.17
2023-03-31T06:33:36.966Z,18.23
2023-03-31T06:36:07.070Z,14.65
2023-03-31T06:38:37.846Z,13.83
2023-03-31T06:41:08.559Z,15.28
2023-03-31T06:43:36.468Z,14.20
2023-03-31T06:46:05.538Z,14.80
2023-03-31T06:48:33.693Z,12.15
2023-03-31T06:51:05.339Z,18.65
2023-03-31T06:53:33.323Z,28.40
2023-03-31T06:56:01.133Z,21.05
2023-03-31T06:58:31.406Z,35.25
2023-03-31T07:00:58.940Z,27.10
2023-03-31T07:03:28.621Z,27.00
2023-03-31T07:05:56.566Z,24.77
2023-03-31T07:08:24.755Z,21.62
2023-03-31T07:10:58.920Z,18.92
2023-03-31T07:13:28.054Z,18.00
2023-03-31T07:15:56.316Z,16.12
2023-03-31T07:18:29.936Z,16.30
2023-03-31T07:20:59.293Z,18.00
2023-03-31T07:23:27.304Z,16.40
2023-03-31T07:25:54.873Z,16.42
2023-03-31T07:28:22.532Z,17.45
2023-03-31T07:30:50.134Z,15.35
2023-03-31T07:33:17.791Z,12.40
2023-03-31T07:35:47.003Z,12.95
2023-03-31T07:38:15.118Z,12.43
2023-03-31T07:40:47.420Z,13.62
2023-03-31T07:43:14.866Z,14.55
2023-03-31T07:45:42.789Z,25.55
2023-03-31T07:48:10.365Z,21.55
2023-03-31T07:50:38.324Z,23.47
2023-03-31T07:53:07.965Z,17.50
2023-03-31T07:55:35.748Z,19.75
2023-03-31T07:58:03.440Z,24.52
2023-03-31T08:00:31.278Z,24.35
2023-03-31T08:02:58.839Z,22.93
2023-03-31T08:05:28.031Z,29.95
2023-03-31T08:07:55.645Z,42.25
2023-03-31T08:10:27.029Z,35.38
2023-03-31T08:12:55.677Z,51.42
2023-03-31T08:15:24.084Z,39.00
2023-03-31T08:17:52.262Z,42.13
2023-03-31T08:20:19.995Z,41.63
2023-03-31T08:22:47.772Z,42.62
2023-03-31T08:25:16.104Z,35.15
2023-03-31T08:27:44.300Z,31.90
2023-03-31T08:30:13.213Z,31.45
2023-03-31T08:32:41.036Z,32.50
2023-03-31T08:35:09.331Z,33.45
2023-03-31T08:37:39.085Z,27.37
2023-03-31T08:40:09.191Z,27.93
2023-03-31T08:42:44.904Z,27.25
2023-03-31T08:45:32.734Z,27.62
2023-03-31T08:48:21.514Z,32.23
2023-03-31T08:50:57.923Z,25.15
2023-03-31T08:53:35.798Z,27.55
2023-03-31T08:56:08.060Z,24.90
2023-03-31T08:58:43.317Z,27.02
2023-03-31T09:01:54.809Z,24.77
2023-03-31T09:04:28.163Z,35.10
2023-03-31T09:07:13.441Z,65.03
2023-03-31T09:09:55.855Z,37.73
2023-03-31T09:12:53.577Z,31.27
2023-03-31T09:15:38.821Z,26.60
2023-03-31T09:18:35.204Z,28.60
2023-03-31T09:21:14.310Z,23.92
2023-03-31T09:23:50.724Z,28.55
2023-03-31T09:26:26.952Z,28.32
2023-03-31T09:28:57.895Z,24.87
2023-03-31T09:31:25.871Z,22.77
2023-03-31T09:34:01.050Z,30.08
2023-03-31T09:36:28.881Z,28.73
2023-03-31T09:38:56.581Z,29.07
2023-03-31T09:41:24.298Z,24.85
2023-03-31T09:43:52.176Z,31.23
2023-03-31T09:46:35.634Z,33.40
2023-03-31T09:49:11.604Z,28.70
2023-03-31T09:51:45.548Z,28.38
2023-03-31T09:54:30.796Z,27.07
2023-03-31T09:56:58.739Z,23.15
2023-03-31T09:59:35.175Z,20.25
2023-03-31T10:02:09.683Z,23.25
2023-03-31T10:04:42.988Z,17.65
2023-03-31T10:07:12.324Z,20.32
2023-03-31T10:09:40.590Z,22.35
2023-03-31T10:12:15.750Z,27.02
2023-03-31T10:14:48.073Z,25.68
2023-03-31T10:17:22.747Z,53.85
2023-03-31T10:20:00.541Z,57.93
2023-03-31T10:22:31.925Z,44.45
2023-03-31T10:25:26.557Z,38.53
2023-03-31T10:27:56.696Z,36.77
2023-03-31T10:30:29.252Z,35.60
2023-03-31T10:33:00.000Z,43.23
2023-03-31T10:35:34.931Z,45.23
2023-03-31T10:38:07.004Z,49.40
2023-03-31T10:40:36.158Z,50.52
2023-03-31T10:43:15.510Z,45.95
2023-03-31T10:45:50.403Z,44.10
2023-03-31T10:48:31.578Z,46.70
2023-03-31T10:51:21.735Z,44.27
2023-03-31T10:53:55.729Z,46.75
2023-03-31T10:56:55.034Z,42.48
2023-03-31T10:59:46.704Z,42.93
2023-03-31T11:02:54.922Z,46.88
2023-03-31T11:05:45.829Z,44.90
2023-03-31T11:08:38.743Z,45.58
2023-03-31T11:11:51.321Z,52.15
2023-03-31T11:14:33.704Z,56.88
2023-03-31T11:17:12.537Z,63.15
2023-03-31T11:19:51.545Z,53.25
2023-03-31T11:22:58.925Z,55.65
2023-03-31T11:26:00.339Z,50.17
2023-03-31T11:29:12.157Z,47.23
2023-03-31T11:31:52.144Z,59.63
2023-03-31T11:35:04.635Z,59.95
2023-03-31T11:38:17.238Z,68.50
2023-03-31T11:41:01.609Z,64.32
2023-03-31T11:43:50.374Z,51.23
2023-03-31T11:46:33.272Z,45.70
2023-03-31T11:49:13.141Z,42.78
2023-03-31T11:51:49.274Z,48.35
2023-03-31T11:54:46.947Z,40.67
2023-03-31T11:57:37.771Z,36.55
2023-03-31T12:00:29.235Z,32.00
2023-03-31T12:03:30.509Z,32.50
2023-03-31T12:06:07.283Z,32.70
2023-03-31T12:09:14.475Z,27.50
2023-03-31T12:11:59.674Z,25.35
2023-03-31T12:15:06.607Z,25.25
2023-03-31T12:17:37.387Z,24.25
2023-03-31T12:20:13.848Z,24.63
2023-03-31T12:22:45.465Z,22.48
2023-03-31T12:25:21.787Z,33.70
2023-03-31T12:27:51.235Z,20.15
2023-03-31T12:30:37.114Z,21.73
2023-03-31T12:33:27.412Z,21.50
2023-03-31T12:36:22.161Z,19.77
2023-03-31T12:39:13.621Z,19.60
2023-03-31T12:42:24.126Z,19.70
2023-03-31T12:45:38.093Z,25.97
2023-03-31T12:48:29.657Z,27.87
2023-03-31T12:51:27.747Z,62.50
2023-03-31T12:54:21.220Z,53.95
2023-03-31T12:57:13.626Z,31.87
2023-03-31T12:59:46.868Z,40.03
2023-03-31T13:02:27.481Z,22.20
2023-03-31T13:04:55.989Z,18.23
2023-03-31T13:07:32.693Z,20.95
2023-03-31T13:10:18.242Z,18.87
2023-03-31T13:13:07.174Z,17.05
2023-03-31T13:15:35.964Z,17.77
2023-03-31T13:18:07.262Z,13.60
2023-03-31T13:20:40.309Z,11.93
2023-03-31T13:23:22.076Z,11.43
2023-03-31T13:25:56.440Z,11.93
2023-03-31T13:28:29.913Z,14.90
2023-03-31T13:31:08.132Z,42.90
2023-03-31T13:33:55.082Z,19.35
2023-03-31T13:36:41.275Z,15.23
2023-03-31T13:39:51.460Z,14.07
2023-03-31T13:43:09.123Z,13.22
2023-03-31T13:46:04.136Z,14.05
2023-03-31T13:48:59.250Z,14.18
2023-03-31T13:51:52.225Z,19.40
2023-03-31T13:54:45.662Z,15.78
2023-03-31T13:57:34.089Z,14.87
2023-03-31T14:00:50.672Z,15.60
2023-03-31T14:03:50.433Z,13.72
2023-03-31T14:06:53.175Z,11.68
2023-03-31T14:09:25.347Z,16.90
2023-03-31T14:11:54.222Z,23.30
2023-03-31T14:14:24.123Z,46.55
2023-03-31T14:17:03.419Z,21.85
2023-03-31T14:20:15.698Z,14.43
2023-03-31T14:23:04.450Z,15.45
2023-03-31T14:26:07.027Z,16.02
2023-03-31T14:29:15.736Z,14.68
2023-03-31T14:32:20.935Z,23.87
2023-03-31T14:35:17.119Z,20.82
2023-03-31T14:37:46.080Z,14.43
2023-03-31T14:40:17.389Z,14.38
2023-03-31T14:42:47.580Z,15.20
2023-03-31T14:45:25.622Z,12.45
2023-03-31T14:48:05.420Z,27.82
2023-03-31T14:50:36.096Z,18.75
2023-03-31T14:53:04.329Z,14.78
2023-03-31T14:55:49.782Z,16.40
2023-03-31T14:58:03.747Z,15.40
2023-03-31T15:00:34.943Z,16.95
2023-03-31T15:03:06.675Z,15.58
2023-03-31T15:05:37.853Z,16.67
2023-03-31T15:08:13.875Z,15.32
2023-03-31T15:11:02.327Z,16.95
2023-03-31T15:13:56.761Z,16.17
2023-03-31T15:16:39.996Z,16.62
2023-03-31T15:19:28.016Z,16.40
2023-03-31T15:22:04.327Z,19.60
2023-03-31T15:24:31.869Z,19.05
2023-03-31T15:27:05.269Z,18.15
2023-03-31T15:29:44.836Z,19.40
2023-03-31T15:32:27.196Z,21.97
2023-03-31T15:34:58.623Z,16.55
2023-03-31T15:37:36.801Z,18.35
2023-03-31T15:40:17.596Z,17.20
2023-03-31T15:42:55.258Z,26.27
2023-03-31T15:45:42.553Z,29.80
2023-03-31T15:48:24.784Z,20.95
2023-03-31T15:50:52.724Z,18.27
2023-03-31T15:53:31.488Z,19.15
2023-03-31T15:56:00.089Z,22.50
2023-03-31T15:58:55.004Z,26.97
2023-03-31T16:01:26.263Z,22.00
2023-03-31T16:03:55.601Z,20.77
2023-03-31T16:06:56.191Z,30.77
2023-03-31T16:09:41.260Z,29.80
2023-03-31T16:12:29.110Z,33.73
2023-03-31T16:15:13.509Z,29.23
2023-03-31T16:17:57.846Z,26.30
2023-03-31T16:20:40.193Z,25.88
2023-03-31T16:23:27.592Z,33.35
2023-03-31T16:25:55.489Z,34.08
2023-03-31T16:28:27.684Z,40.60
2023-03-31T16:30:55.466Z,40.95
2023-03-31T16:33:24.483Z,42.85
2023-03-31T16:35:55.793Z,65.97
2023-03-31T16:38:27.302Z,46.37
2023-03-31T16:41:06.151Z,42.45
2023-03-31T16:43:41.541Z,37.08
2023-03-31T16:46:14.610Z,39.00
2023-03-31T16:48:42.710Z,50.12
2023-03-31T16:51:19.770Z,65.97
2023-03-31T16:57:25.170Z,66.28
2023-03-31T16:59:53.097Z,99.72
2023-03-31T17:02:21.103Z,79.85
2023-03-31T17:04:49.570Z,81.10
2023-03-31T17:07:18.702Z,77.15
2023-03-31T17:09:47.054Z,79.12
2023-03-31T17:12:15.875Z,76.50
2023-03-31T17:14:46.954Z,74.00
2023-03-31T17:17:17.805Z,76.45
2023-03-31T17:19:45.121Z,68.17
2023-03-31T17:22:13.480Z,69.87
2023-03-31T17:24:41.904Z,74.62
2023-03-31T17:27:10.084Z,93.95
2023-03-31T17:29:38.386Z,172.30
2023-03-31T17:32:06.503Z,142.55
2023-03-31T17:34:34.872Z,236.03
2023-03-31T17:37:02.986Z,182.70
2023-03-31T17:39:31.025Z,183.78
2023-03-31T17:41:59.439Z,192.15
2023-03-31T17:44:27.915Z,172.50
2023-03-31T17:46:59.221Z,153.12
2023-03-31T17:49:27.445Z,162.40
2023-03-31T17:51:56.843Z,115.37
2023-03-31T17:54:25.134Z,128.40
2023-03-31T17:56:56.463Z,173.82
2023-03-31T17:59:24.952Z,170.92
2023-03-31T18:01:54.665Z,166.55
2023-03-31T18:04:25.397Z,155.97
2023-03-31T18:06:53.097Z,141.22
2023-03-31T18:09:21.606Z,112.90
2023-03-31T18:11:51.652Z,104.45
2023-03-31T18:14:20.094Z,113.77
2023-03-31T18:16:47.968Z,117.10
2023-03-31T18:19:19.298Z,141.37
2023-03-31T18:21:47.412Z,177.17
2023-03-31T18:24:19.589Z,165.35
2023-03-31T18:26:47.446Z,139.10
2023-03-31T18:29:15.916Z,118.67
2023-03-31T18:31:43.787Z,104.63
2023-03-31T18:34:13.141Z,98.35
2023-03-31T18:36:40.985Z,98.25
2023-03-31T18:39:08.653Z,92.75
2023-03-31T18:41:36.635Z,90.22
2023-03-31T18:44:08.022Z,96.15
2023-03-31T18:46:35.660Z,90.05
2023-03-31T18:49:03.934Z,87.70
2023-03-31T18:51:33.767Z,80.85
2023-03-31T18:54:01.800Z,72.05
2023-03-31T18:56:30.268Z,64.82
2023-03-31T18:59:02.651Z,63.73
2023-03-31T19:01:36.810Z,61.90
2023-03-31T19:04:04.853Z,59.23
2023-03-31T19:06:32.842Z,59.00
2023-03-31T19:09:00.789Z,65.32
2023-03-31T19:11:29.302Z,64.12
2023-03-31T19:13:57.140Z,67.92
2023-03-31T19:16:27.046Z,56.70
2023-03-31T19:18:57.959Z,65.67
2023-03-31T19:21:26.658Z,63.92
2023-03-31T19:23:54.461Z,70.00
2023-03-31T19:26:22.854Z,66.47
2023-03-31T19:28:50.526Z,67.42
2023-03-31T19:31:18.633Z,58.42
2023-03-31T19:33:47.178Z,57.95
2023-03-31T19:36:17.334Z,59.75
2023-03-31T19:38:45.327Z,53.05
2023-03-31T19:41:13.890Z,56.88
2023-03-31T19:43:43.772Z,55.98
2023-03-31T19:46:12.201Z,48.52
2023-03-31T19:48:40.769Z,57.03
2023-03-31T19:51:10.213Z,52.73
2023-03-31T19:53:40.248Z,55.95
2023-03-31T19:56:12.141Z,62.83
2023-03-31T19:58:41.131Z,53.85
2023-03-31T20:01:20.449Z,64.10
2023-03-31T20:03:55.552Z,58.42
2023-03-31T20:06:28.024Z,62.38
2023-03-31T20:08:59.458Z,57.03
2023-03-31T20:11:30.317Z,59.48
2023-03-31T20:13:58.941Z,49.83
2023-03-31T20:16:30.039Z,49.85
2023-03-31T20:19:03.692Z,48.42
2023-03-31T20:21:35.176Z,51.42
2023-03-31T20:24:05.069Z,50.92
2023-03-31T20:26:34.657Z,46.37
2023-03-31T20:29:03.539Z,47.75
2023-03-31T20:31:36.792Z,47.17
2023-03-31T20:34:14.546Z,52.95
2023-03-31T20:36:45.524Z,47.08
2023-03-31T20:39:14.881Z,40.88
2023-03-31T20:41:45.296Z,43.73
2023-03-31T20:44:15.224Z,42.88
2023-03-31T20:46:47.260Z,38.88
2023-03-31T20:49:15.069Z,42.03
2023-03-31T20:51:43.386Z,47.20
2023-03-31T20:54:11.524Z,42.83
2023-03-31T20:56:41.255Z,41.50
2023-03-31T20:59:14.420Z,38.38
2023-03-31T21:01:44.713Z,41.20
2023-03-31T21:04:13.526Z,41.40
2023-03-31T21:06:46.850Z,43.60
2023-03-31T21:09:16.523Z,41.30
2023-03-31T21:11:44.623Z,43.63
2023-03-31T21:14:15.383Z,37.13
2023-03-31T21:16:44.202Z,32.03
2023-03-31T21:19:12.510Z,32.03
2023-03-31T21:21:41.360Z,32.48
2023-03-31T21:24:11.992Z,32.83
2023-03-31T21:26:40.462Z,30.50
2023-03-31T21:29:08.302Z,26.70
2023-03-31T21:31:36.284Z,21.73
2023-03-31T21:34:04.121Z,24.37
2023-03-31T21:36:31.852Z,24.57
2023-03-31T21:38:59.506Z,22.37
2023-03-31T21:41:30.484Z,25.35
2023-03-31T21:44:00.886Z,20.35
2023-03-31T21:46:32.032Z,22.40
2023-03-31T21:49:00.637Z,21.40
2023-03-31T21:51:28.498Z,20.65
2023-03-31T21:53:56.920Z,20.85
2023-03-31T21:56:27.673Z,23.98
2023-03-31T21:58:56.605Z,24.07
2023-03-31T22:01:24.441Z,20.23
2023-03-31T22:03:52.864Z,23.75
2023-03-31T22:06:21.901Z,20.90
2023-03-31T22:08:50.268Z,21.52
2023-03-31T22:11:17.934Z,20.80
2023-03-31T22:13:45.847Z,22.55
2023-03-31T22:16:22.139Z,19.12
2023-03-31T22:18:52.172Z,17.42
2023-03-31T22:21:25.975Z,19.65
2023-03-31T22:23:58.267Z,15.45
2023-03-31T22:26:28.640Z,18.95
2023-03-31T22:28:57.299Z,21.87
2023-03-31T22:31:27.131Z,19.32
2023-03-31T22:33:55.284Z,19.62
2023-03-31T22:36:23.155Z,20.43
2023-03-31T22:38:51.043Z,28.12
2023-03-31T22:41:18.828Z,26.30
2023-03-31T22:43:46.673Z,25.37
2023-03-31T22:46:15.552Z,26.17
2023-03-31T22:48:43.597Z,26.02
2023-03-31T22:51:11.744Z,26.97
2023-03-31T22:53:39.425Z,30.15
2023-03-31T22:56:11.381Z,25.40
2023-03-31T22:58:39.482Z,27.87
2023-03-31T23:01:09.302Z,30.45
2023-03-31T23:03:37.363Z,32.13
2023-03-31T23:06:06.299Z,33.83
2023-03-31T23:08:36.402Z,28.17
2023-03-31T23:11:08.783Z,24.87
2023-03-31T23:13:36.711Z,20.02
2023-03-31T23:16:18.393Z,17.67
2023-03-31T23:18:47.849Z,16.42
2023-03-31T23:21:19.641Z,15.72
2023-03-31T23:23:50.931Z,12.40
2023-03-31T23:26:19.147Z,12.28
2023-03-31T23:28:48.992Z,10.55
2023-03-31T23:31:23.793Z,11.70
2023-03-31T23:33:51.627Z,7.00
2023-03-31T23:36:20.750Z,8.08
2023-03-31T23:38:51.904Z,8.80
2023-03-31T23:41:20.662Z,8.33
2023-03-31T23:43:50.266Z,10.45
2023-03-31T23:46:18.379Z,8.63
2023-03-31T23:48:45.947Z,9.65
2023-03-31T23:51:13.933Z,8.55
2023-03-31T23:53:41.507Z,7.62
2023-03-31T23:56:12.525Z,9.15
2023-03-31T23:58:42.334Z,9.13
